Time;durP1;ratioP1;P1;durP2;ratioP2;P2;SDS_P1;SDS_P2;PMS_P1;PMS_P2;Temp;Humidity;BMP_temperature;BMP_pressure;BME280_temperature;BME280_humidity;BME280_pressure;Samples;Min_cycle;Max_cycle;Signal;HPM_P1;HPM_P2
2023/03/04 00:00:27;;;;;;;36.53;18.73;;;4.20;1.00;;;;;;4979125;28;20289;-65
2023/03/04 00:02:54;;;;;;;33.57;17.73;;;4.10;1.00;;;;;;4979698;28;20776;-66
2023/03/04 00:05:21;;;;;;;30.87;15.93;;;4.10;1.00;;;;;;4979660;28;20717;-65
2023/03/04 00:07:48;;;;;;;24.50;15.07;;;4.10;1.00;;;;;;4979910;28;20251;-65
2023/03/04 00:10:15;;;;;;;33.00;14.83;;;4.10;1.00;;;;;;4979173;28;20650;-65
2023/03/04 00:12:42;;;;;;;31.30;15.83;;;4.20;1.00;;;;;;4979409;28;20692;-65
2023/03/04 00:15:09;;;;;;;30.53;16.27;;;4.20;1.00;;;;;;4962628;28;20229;-65
2023/03/04 00:17:36;;;;;;;26.40;15.50;;;4.20;1.00;;;;;;4977917;28;20518;-65
2023/03/04 00:20:03;;;;;;;33.80;20.43;;;4.20;1.00;;;;;;4969416;28;20288;-65
2023/03/04 00:22:30;;;;;;;30.73;18.17;;;4.20;1.00;;;;;;4979306;28;20582;-65
2023/03/04 00:24:57;;;;;;;29.67;16.27;;;4.20;1.00;;;;;;4978303;28;20256;-65
2023/03/04 00:27:24;;;;;;;21.50;12.80;;;4.20;1.00;;;;;;4979526;28;20264;-63
2023/03/04 00:29:51;;;;;;;27.83;13.60;;;4.20;1.00;;;;;;4962522;28;20201;-65
2023/03/04 00:32:19;;;;;;;25.77;11.03;;;4.20;1.00;;;;;;4977832;28;20212;-65
2023/03/04 00:34:46;;;;;;;24.07;9.57;;;4.20;1.00;;;;;;4976869;28;20206;-65
2023/03/04 00:37:13;;;;;;;26.83;8.87;;;4.20;1.00;;;;;;4969083;28;20304;-65
2023/03/04 00:39:40;;;;;;;19.27;6.53;;;4.30;1.00;;;;;;4978661;28;20313;-65
2023/03/04 00:42:08;;;;;;;15.77;5.70;;;4.30;1.00;;;;;;4976568;28;20545;-64
2023/03/04 00:44:37;;;;;;;16.43;5.73;;;4.30;1.00;;;;;;4978971;28;20964;-65
2023/03/04 00:47:04;;;;;;;20.93;5.53;;;4.30;1.00;;;;;;4969063;28;20601;-65
2023/03/04 00:49:31;;;;;;;18.13;5.53;;;4.40;1.00;;;;;;4977214;28;20203;-65
2023/03/04 00:51:58;;;;;;;17.83;5.07;;;4.30;1.00;;;;;;4978767;28;20217;-65
2023/03/04 00:54:26;;;;;;;19.60;5.07;;;4.30;1.00;;;;;;4977541;28;20541;-65
2023/03/04 00:56:53;;;;;;;18.27;5.03;;;4.40;1.00;;;;;;4978954;28;20221;-65
2023/03/04 00:59:20;;;;;;;16.07;5.00;;;4.40;1.00;;;;;;4960876;28;20288;-66
2023/03/04 01:01:46;;;;;;;18.80;5.07;;;4.40;1.00;;;;;;4978505;28;20747;-65
2023/03/04 01:04:16;;;;;;;14.20;4.47;;;4.40;1.00;;;;;;4968477;28;20248;-65
2023/03/04 01:06:43;;;;;;;23.17;5.50;;;4.30;1.00;;;;;;4978403;28;20300;-66
2023/03/04 01:09:11;;;;;;;18.07;4.70;;;4.40;1.00;;;;;;4968730;28;20202;-66
2023/03/04 01:11:38;;;;;;;16.80;4.43;;;4.40;1.00;;;;;;4977835;28;20255;-65
2023/03/04 01:14:05;;;;;;;19.00;4.53;;;4.40;1.00;;;;;;4978410;28;20740;-66
2023/03/04 01:16:32;;;;;;;16.43;5.03;;;4.40;1.00;;;;;;4978841;28;20629;-66
2023/03/04 01:18:59;;;;;;;21.07;4.70;;;4.40;1.00;;;;;;4976527;28;20221;-66
2023/03/04 01:21:26;;;;;;;15.00;4.30;;;4.50;1.00;;;;;;4977186;28;20807;-67
2023/03/04 01:23:54;;;;;;;15.97;4.53;;;4.40;1.00;;;;;;4960672;28;21016;-64
2023/03/04 01:26:21;;;;;;;21.13;5.17;;;4.40;1.00;;;;;;4968677;28;20870;-66
2023/03/04 01:28:48;;;;;;;17.17;4.50;;;4.40;1.00;;;;;;4977865;28;20212;-66
2023/03/04 01:31:15;;;;;;;19.53;4.57;;;4.40;1.00;;;;;;4978313;28;20404;-64
2023/03/04 01:33:43;;;;;;;16.87;4.47;;;4.50;1.00;;;;;;4978152;28;20194;-66
2023/03/04 01:36:10;;;;;;;21.40;4.10;;;4.50;1.00;;;;;;4978724;28;20221;-65
2023/03/04 01:38:37;;;;;;;24.03;4.63;;;4.50;1.00;;;;;;4960802;28;20668;-67
2023/03/04 01:41:06;;;;;;;20.37;4.67;;;4.50;1.00;;;;;;4976808;28;20198;-66
2023/03/04 01:43:35;;;;;;;18.07;4.40;;;4.40;1.00;;;;;;4968299;28;20249;-66
2023/03/04 01:46:02;;;;;;;25.83;4.53;;;4.50;1.00;;;;;;4951867;28;20208;-66
2023/03/04 01:48:35;;;;;;;21.87;4.67;;;4.50;1.00;;;;;;4976452;28;20306;-66
2023/03/04 01:51:12;;;;;;;27.43;4.40;;;4.50;1.00;;;;;;4951729;28;20260;-67
2023/03/04 01:53:42;;;;;;;20.53;4.40;;;4.40;1.00;;;;;;4967188;28;20204;-67
2023/03/04 01:56:14;;;;;;;17.77;3.90;;;4.50;1.00;;;;;;4978676;28;20202;-64
2023/03/04 01:58:42;;;;;;;17.33;4.10;;;4.50;1.00;;;;;;4977357;28;20251;-67
2023/03/04 02:01:11;;;;;;;15.93;3.87;;;4.50;1.00;;;;;;4977177;28;20291;-66
2023/03/04 02:03:39;;;;;;;15.20;4.00;;;4.50;1.00;;;;;;4996530;23;20237;-64
2023/03/04 02:06:06;;;;;;;16.07;4.53;;;4.60;1.00;;;;;;4988256;28;20839;-66
2023/03/04 02:08:33;;;;;;;14.50;3.80;;;4.50;1.00;;;;;;4980635;28;20202;-71
2023/03/04 02:11:00;;;;;;;16.47;4.17;;;4.50;1.00;;;;;;4988373;28;20422;-66
2023/03/04 02:13:27;;;;;;;16.87;4.70;;;4.50;1.00;;;;;;4983435;28;20281;-66
2023/03/04 02:15:54;;;;;;;18.23;4.03;;;4.50;1.00;;;;;;4981793;28;20201;-63
2023/03/04 02:18:23;;;;;;;22.43;4.30;;;4.60;1.00;;;;;;4965563;28;20217;-65
2023/03/04 02:21:08;;;;;;;19.87;4.33;;;4.60;1.00;;;;;;4979467;28;20202;-64
2023/03/04 02:23:38;;;;;;;16.57;4.33;;;4.60;1.00;;;;;;4979013;28;20344;-65
2023/03/04 02:26:19;;;;;;;17.23;4.23;;;4.60;1.00;;;;;;4989562;28;20193;-66
2023/03/04 02:28:51;;;;;;;25.93;4.07;;;4.60;1.00;;;;;;4996413;28;20693;-66
2023/03/04 02:31:48;;;;;;;21.07;4.33;;;4.60;1.00;;;;;;4981433;28;20225;-66
2023/03/04 02:34:18;;;;;;;20.40;4.70;;;4.60;1.00;;;;;;4963970;28;20209;-66
2023/03/04 02:36:47;;;;;;;20.00;4.07;;;4.60;1.00;;;;;;4982251;28;20568;-64
2023/03/04 02:39:20;;;;;;;15.00;4.10;;;4.60;1.00;;;;;;4980490;28;20232;-68
2023/03/04 02:41:54;;;;;;;18.43;3.93;;;4.60;1.00;;;;;;4981179;28;20233;-67
2023/03/04 02:44:34;;;;;;;15.83;4.00;;;4.50;1.00;;;;;;4981571;28;20798;-64
2023/03/04 02:47:02;;;;;;;16.33;3.60;;;4.60;1.00;;;;;;4988161;28;20292;-65
2023/03/04 02:49:33;;;;;;;17.83;4.23;;;4.60;1.00;;;;;;4965089;28;20210;-64
2023/03/04 02:52:21;;;;;;;21.30;3.90;;;4.60;1.00;;;;;;4996953;28;20201;-59
2023/03/04 02:54:48;;;;;;;18.83;3.83;;;4.60;1.00;;;;;;4981386;28;20217;-59
2023/03/04 02:57:16;;;;;;;16.57;4.07;;;4.60;1.00;;;;;;4980693;28;20312;-60
2023/03/04 02:59:46;;;;;;;17.53;3.93;;;4.60;1.00;;;;;;4979648;28;20629;-59
2023/03/04 03:02:18;;;;;;;18.67;3.80;;;4.60;1.00;;;;;;4965072;28;20234;-60
2023/03/04 03:04:45;;;;;;;14.80;3.20;;;4.60;1.00;;;;;;4980949;28;20287;-60
2023/03/04 03:07:14;;;;;;;18.20;4.30;;;4.50;1.00;;;;;;4979342;28;20201;-61
2023/03/04 03:09:42;;;;;;;18.03;4.00;;;4.60;1.00;;;;;;4979183;28;20198;-60
2023/03/04 03:12:09;;;;;;;15.07;4.50;;;4.60;1.00;;;;;;4988750;28;20257;-60
2023/03/04 03:14:36;;;;;;;19.33;3.67;;;4.50;1.00;;;;;;4978682;28;20294;-59
2023/03/04 03:17:05;;;;;;;15.47;3.40;;;4.50;1.00;;;;;;4979812;28;20329;-60
2023/03/04 03:19:31;;;;;;;20.70;3.80;;;4.60;1.00;;;;;;4970530;28;20204;-60
2023/03/04 03:22:01;;;;;;;20.70;4.67;;;4.60;1.00;;;;;;4978589;28;20225;-60
2023/03/04 03:24:28;;;;;;;18.13;3.73;;;4.60;1.00;;;;;;4980549;28;20686;-62
2023/03/04 03:26:55;;;;;;;15.73;3.70;;;4.50;1.00;;;;;;4981138;28;20568;-62
2023/03/04 03:29:23;;;;;;;15.00;3.77;;;4.50;1.00;;;;;;4978949;28;20245;-59
2023/03/04 03:31:50;;;;;;;16.30;3.73;;;4.50;1.00;;;;;;4979228;28;21268;-60
2023/03/04 03:34:19;;;;;;;14.57;3.27;;;4.60;1.00;;;;;;4979615;28;20341;-67
2023/03/04 03:36:46;;;;;;;19.87;4.20;;;4.60;1.00;;;;;;4980512;28;20194;-65
2023/03/04 03:39:14;;;;;;;12.30;3.50;;;4.60;1.00;;;;;;4978510;28;20193;-65
2023/03/04 03:41:42;;;;;;;14.30;3.47;;;4.60;1.00;;;;;;4980798;28;20222;-66
2023/03/04 03:44:09;;;;;;;18.00;3.30;;;4.60;1.00;;;;;;4980885;28;20811;-66
2023/03/04 03:46:36;;;;;;;11.80;3.30;;;4.60;1.00;;;;;;4981164;28;20193;-66
2023/03/04 03:49:02;;;;;;;12.67;3.37;;;4.60;1.00;;;;;;4979516;28;20300;-65
2023/03/04 03:51:29;;;;;;;19.17;3.83;;;4.60;1.00;;;;;;4980857;28;20685;-65
2023/03/04 03:53:56;;;;;;;14.50;3.30;;;4.60;1.00;;;;;;4981173;28;20208;-66
2023/03/04 03:56:23;;;;;;;13.03;3.30;;;4.60;1.00;;;;;;4982125;28;20205;-66
2023/03/04 03:58:50;;;;;;;16.23;4.43;;;4.60;1.00;;;;;;4981893;28;20197;-66
2023/03/04 04:01:17;;;;;;;21.27;3.60;;;4.60;1.00;;;;;;4981190;28;20209;-59
2023/03/04 04:03:44;;;;;;;19.43;4.20;;;4.60;1.00;;;;;;4979071;28;20316;-65
2023/03/04 04:06:11;;;;;;;15.23;3.60;;;4.60;1.00;;;;;;4980807;28;20198;-65
2023/03/04 04:08:38;;;;;;;14.30;3.70;;;4.60;1.00;;;;;;4977987;28;20193;-66
2023/03/04 04:11:05;;;;;;;21.47;4.03;;;4.60;1.00;;;;;;4979226;28;20222;-66
2023/03/04 04:13:32;;;;;;;15.97;3.93;;;4.60;1.00;;;;;;4979583;28;20717;-65
2023/03/04 04:15:59;;;;;;;18.00;3.50;;;4.60;1.00;;;;;;4981026;28;20225;-65
2023/03/04 04:18:26;;;;;;;19.53;3.93;;;4.60;1.00;;;;;;4979974;28;20206;-64
2023/03/04 04:20:53;;;;;;;15.23;3.43;;;4.60;1.00;;;;;;4980188;28;20573;-66
2023/03/04 04:23:20;;;;;;;14.77;3.40;;;4.60;1.00;;;;;;4981136;28;20340;-65
2023/03/04 04:25:47;;;;;;;15.37;3.47;;;4.50;1.00;;;;;;4980770;28;20201;-65
2023/03/04 04:28:14;;;;;;;18.73;3.43;;;4.60;1.00;;;;;;4979562;28;20765;-65
2023/03/04 04:30:41;;;;;;;15.00;3.37;;;4.60;1.00;;;;;;4979237;28;20685;-65
2023/03/04 04:33:09;;;;;;;11.27;3.50;;;4.60;1.00;;;;;;4987392;28;20203;-65
2023/03/04 04:35:37;;;;;;;13.60;3.27;;;4.60;1.00;;;;;;4979172;28;20202;-65
2023/03/04 04:38:05;;;;;;;13.70;3.60;;;4.60;1.00;;;;;;4980360;28;20216;-68
2023/03/04 04:40:32;;;;;;;13.53;4.17;;;4.60;1.00;;;;;;4980291;28;20288;-65
2023/03/04 04:42:59;;;;;;;16.93;3.47;;;4.60;1.00;;;;;;4980748;28;20718;-65
2023/03/04 04:45:26;;;;;;;14.67;3.57;;;4.60;1.00;;;;;;4978903;28;20260;-67
2023/03/04 04:47:56;;;;;;;8.87;3.47;;;4.60;1.00;;;;;;4981025;28;20193;-60
2023/03/04 04:50:24;;;;;;;17.20;3.80;;;4.60;1.00;;;;;;4985354;28;20736;-60
2023/03/04 04:52:51;;;;;;;11.90;3.47;;;4.60;1.00;;;;;;4980798;28;20213;-59
2023/03/04 04:55:18;;;;;;;13.03;3.57;;;4.60;1.00;;;;;;4979563;28;20245;-59
2023/03/04 04:57:45;;;;;;;11.57;3.00;;;4.60;1.00;;;;;;4979235;28;20285;-59
2023/03/04 05:00:12;;;;;;;16.27;3.80;;;4.60;1.00;;;;;;4978834;28;20612;-60
2023/03/04 05:02:39;;;;;;;15.03;3.50;;;4.60;1.00;;;;;;4978353;28;20564;-61
2023/03/04 05:05:07;;;;;;;11.90;3.93;;;4.60;1.00;;;;;;4978155;28;20276;-61
2023/03/04 05:07:34;;;;;;;14.27;2.97;;;4.60;1.00;;;;;;4980981;28;20326;-61
2023/03/04 05:10:01;;;;;;;10.40;3.77;;;4.70;1.00;;;;;;4978044;28;20198;-60
2023/03/04 05:12:28;;;;;;;13.33;3.97;;;4.60;1.00;;;;;;4980249;28;20197;-60
2023/03/04 05:14:55;;;;;;;11.77;3.47;;;4.60;1.00;;;;;;4981840;28;20202;-63
2023/03/04 05:17:22;;;;;;;12.53;3.50;;;4.60;1.00;;;;;;4981054;28;20205;-61
2023/03/04 05:19:49;;;;;;;15.87;3.77;;;4.60;1.00;;;;;;4977905;28;20712;-60
2023/03/04 05:22:16;;;;;;;12.47;3.83;;;4.60;1.00;;;;;;4979015;28;20719;-60
2023/03/04 05:24:43;;;;;;;10.43;3.57;;;4.60;1.00;;;;;;4978298;28;20564;-61
2023/03/04 05:27:10;;;;;;;14.17;3.73;;;4.60;1.00;;;;;;4978901;28;20186;-62
2023/03/04 05:29:37;;;;;;;12.20;3.03;;;4.60;1.00;;;;;;4979506;28;20194;-60
2023/03/04 05:32:04;;;;;;;13.13;3.30;;;4.60;1.00;;;;;;4979753;28;20225;-60
2023/03/04 05:34:31;;;;;;;14.67;4.03;;;4.60;1.00;;;;;;4978406;28;20565;-66
2023/03/04 05:36:58;;;;;;;16.43;4.50;;;4.60;1.00;;;;;;4979234;28;20297;-65
2023/03/04 05:39:25;;;;;;;15.57;3.20;;;4.60;1.00;;;;;;4979816;28;20206;-62
2023/03/04 05:41:51;;;;;;;18.57;2.90;;;4.60;1.00;;;;;;4979786;28;20229;-61
2023/03/04 05:44:18;;;;;;;9.50;3.17;;;4.60;1.00;;;;;;4978936;28;20227;-60
2023/03/04 05:46:45;;;;;;;15.60;3.90;;;4.60;1.00;;;;;;4978682;28;20256;-61
2023/03/04 05:49:16;;;;;;;13.63;3.23;;;4.60;1.00;;;;;;4979620;28;20667;-59
2023/03/04 05:51:45;;;;;;;13.10;3.20;;;4.60;1.00;;;;;;4979600;28;20268;-60
2023/03/04 05:54:12;;;;;;;15.17;2.93;;;4.60;1.00;;;;;;4962377;28;20285;-59
2023/03/04 05:56:39;;;;;;;12.03;2.50;;;4.60;1.00;;;;;;4979098;28;20202;-68
2023/03/04 05:59:06;;;;;;;20.10;3.33;;;4.60;1.00;;;;;;4978268;28;20685;-68
2023/03/04 06:01:33;;;;;;;16.23;3.93;;;4.50;1.00;;;;;;4976887;28;20285;-66
2023/03/04 06:04:00;;;;;;;15.00;3.67;;;4.60;1.00;;;;;;4978272;28;20782;-61
2023/03/04 06:06:27;;;;;;;12.10;2.97;;;4.60;1.00;;;;;;4979976;28;20224;-63
2023/03/04 06:08:54;;;;;;;12.20;2.90;;;4.60;1.00;;;;;;4978562;28;20300;-61
2023/03/04 06:11:21;;;;;;;10.40;2.60;;;4.60;1.00;;;;;;4979401;28;20227;-60
2023/03/04 06:13:48;;;;;;;11.60;2.57;;;4.60;1.00;;;;;;4978811;28;20732;-66
2023/03/04 06:16:15;;;;;;;17.33;3.20;;;4.60;1.00;;;;;;4979046;28;20201;-66
2023/03/04 06:18:42;;;;;;;14.97;3.33;;;4.60;1.00;;;;;;4978024;28;20202;-65
2023/03/04 06:21:09;;;;;;;8.60;2.30;;;4.60;1.00;;;;;;4979975;28;20654;-68
2023/03/04 06:23:37;;;;;;;14.63;2.93;;;4.60;1.00;;;;;;4979070;28;20754;-67
2023/03/04 06:26:08;;;;;;;17.80;4.03;;;4.60;1.00;;;;;;4979806;28;20578;-66
2023/03/04 06:28:35;;;;;;;15.00;3.33;;;4.60;1.00;;;;;;4984218;28;20199;-66
2023/03/04 06:31:02;;;;;;;10.90;2.97;;;4.60;1.00;;;;;;4979421;28;20626;-67
2023/03/04 06:33:28;;;;;;;18.57;3.13;;;4.70;1.00;;;;;;4977381;28;20222;-65
2023/03/04 06:35:56;;;;;;;10.47;2.93;;;4.70;1.00;;;;;;4977781;28;20620;-68
2023/03/04 06:38:24;;;;;;;10.87;2.57;;;4.60;1.00;;;;;;4977028;28;20236;-67
2023/03/04 06:40:51;;;;;;;14.80;3.30;;;4.70;1.00;;;;;;4979371;28;20240;-65
2023/03/04 06:43:20;;;;;;;7.00;2.70;;;4.70;1.00;;;;;;4978802;28;20270;-64
2023/03/04 06:45:48;;;;;;;10.37;3.13;;;4.70;1.00;;;;;;4978724;28;20276;-64
2023/03/04 06:48:15;;;;;;;14.53;2.67;;;4.70;1.00;;;;;;4979302;28;20198;-65
2023/03/04 06:50:42;;;;;;;7.83;2.37;;;4.70;1.00;;;;;;4981280;28;20196;-66
2023/03/04 06:53:09;;;;;;;8.80;2.60;;;4.70;1.00;;;;;;4981485;28;20206;-67
2023/03/04 06:55:36;;;;;;;14.03;2.73;;;4.70;1.00;;;;;;4982288;28;20209;-65
2023/03/04 06:58:03;;;;;;;12.97;3.10;;;4.70;1.00;;;;;;4982169;28;20209;-64
2023/03/04 07:00:30;;;;;;;13.90;3.10;;;4.80;1.00;;;;;;4981122;28;20276;-65
2023/03/04 07:02:58;;;;;;;9.37;2.50;;;4.80;1.00;;;;;;4980897;28;20206;-65
2023/03/04 07:05:25;;;;;;;8.87;2.50;;;4.80;1.00;;;;;;4981696;28;20660;-66
2023/03/04 07:07:52;;;;;;;12.33;3.07;;;4.80;1.00;;;;;;4982859;28;20311;-65
2023/03/04 07:10:19;;;;;;;14.50;3.07;;;4.80;1.00;;;;;;4980991;28;20273;-65
2023/03/04 07:12:46;;;;;;;11.97;3.17;;;4.90;1.00;;;;;;4973185;28;20253;-66
2023/03/04 07:15:13;;;;;;;9.73;2.50;;;5.00;1.00;;;;;;4964782;28;20203;-67
2023/03/04 07:17:40;;;;;;;10.93;2.90;;;5.10;1.00;;;;;;4980344;28;20197;-66
2023/03/04 07:20:08;;;;;;;9.77;2.90;;;5.20;1.00;;;;;;4979684;28;20308;-67
2023/03/04 07:22:35;;;;;;;10.10;3.17;;;5.40;1.00;;;;;;4996371;28;20201;-66
2023/03/04 07:25:04;;;;;;;9.60;3.50;;;5.60;1.00;;;;;;4981915;28;20306;-68
2023/03/04 07:27:31;;;;;;;12.03;2.97;;;5.80;1.00;;;;;;4990662;28;20202;-66
2023/03/04 07:29:58;;;;;;;11.23;3.17;;;6.00;1.00;;;;;;4982578;28;20225;-66
2023/03/04 07:32:25;;;;;;;7.20;2.53;;;6.10;1.00;;;;;;4982226;28;20198;-64
2023/03/04 07:34:52;;;;;;;11.60;3.60;;;6.10;1.00;;;;;;4981060;28;20748;-68
2023/03/04 07:37:19;;;;;;;8.07;3.10;;;6.00;1.00;;;;;;4979627;28;20576;-69
2023/03/04 07:39:46;;;;;;;12.77;3.20;;;5.90;1.00;;;;;;4982897;28;20296;-66
2023/03/04 07:42:13;;;;;;;10.90;3.13;;;6.00;1.00;;;;;;4982637;28;20213;-66
2023/03/04 07:44:44;;;;;;;7.50;3.00;;;6.30;1.00;;;;;;4979717;28;20707;-61
2023/03/04 07:47:11;;;;;;;11.33;3.83;;;6.60;1.00;;;;;;4981469;28;20665;-61
2023/03/04 07:49:38;;;;;;;9.40;2.97;;;6.80;1.00;;;;;;4979713;28;20241;-64
2023/03/04 07:52:05;;;;;;;7.90;2.50;;;7.10;1.00;;;;;;4981457;28;21095;-60
2023/03/04 07:54:32;;;;;;;6.87;2.70;;;7.20;1.00;;;;;;4982122;28;20210;-61
2023/03/04 07:56:59;;;;;;;10.07;2.70;;;7.40;1.00;;;;;;4981357;28;20681;-59
2023/03/04 07:59:26;;;;;;;6.80;2.33;;;7.20;1.00;;;;;;4980739;28;20216;-60
2023/03/04 08:01:53;;;;;;;6.37;2.47;;;7.30;1.00;;;;;;4980887;28;20207;-62
2023/03/04 08:04:20;;;;;;;11.13;2.57;;;7.80;1.00;;;;;;4981250;28;20780;-63
2023/03/04 08:06:47;;;;;;;10.17;2.30;;;8.30;1.00;;;;;;4981463;28;21125;-61
2023/03/04 08:09:14;;;;;;;7.60;2.60;;;8.80;1.00;;;;;;4980491;28;20213;-63
2023/03/04 08:11:42;;;;;;;9.17;2.50;;;9.10;1.00;;;;;;4980804;28;20252;-63
2023/03/04 08:14:11;;;;;;;8.07;2.50;;;9.20;1.00;;;;;;4988044;28;20301;-63
2023/03/04 08:16:38;;;;;;;6.93;2.17;;;9.00;1.00;;;;;;4980572;28;20225;-60
2023/03/04 08:19:06;;;;;;;9.77;2.47;;;8.30;1.00;;;;;;4980849;28;20634;-62
2023/03/04 08:21:33;;;;;;;11.23;2.37;;;7.50;1.00;;;;;;4979658;28;20296;-59
2023/03/04 08:24:06;;;;;;;8.37;2.57;;;7.00;1.00;;;;;;4980858;28;20707;-60
2023/03/04 08:26:40;;;;;;;5.53;2.27;;;6.90;1.00;;;;;;4980288;28;20205;-62
2023/03/04 08:29:09;;;;;;;13.27;2.47;;;7.00;1.00;;;;;;4980706;28;20194;-62
2023/03/04 08:31:38;;;;;;;10.50;3.13;;;7.20;1.00;;;;;;4980524;28;20225;-68
2023/03/04 08:34:07;;;;;;;15.83;2.90;;;7.60;1.00;;;;;;4988679;28;20292;-61
2023/03/04 08:36:34;;;;;;;11.07;2.70;;;8.00;1.00;;;;;;4986097;28;20197;-68
2023/03/04 08:39:02;;;;;;;8.00;2.70;;;8.20;1.00;;;;;;4981653;28;20213;-68
2023/03/04 08:41:30;;;;;;;10.50;2.47;;;8.50;1.00;;;;;;4986170;28;20472;-68
2023/03/04 08:43:59;;;;;;;10.43;3.00;;;8.60;1.00;;;;;;4983913;28;20233;-67
2023/03/04 08:46:27;;;;;;;10.90;3.20;;;8.00;1.00;;;;;;4987449;28;20198;-67
2023/03/04 08:48:54;;;;;;;8.17;2.43;;;7.80;1.00;;;;;;4986847;28;21271;-67
2023/03/04 08:51:21;;;;;;;8.20;2.27;;;7.70;1.00;;;;;;4980759;28;20237;-71
2023/03/04 08:53:48;;;;;;;8.87;3.00;;;7.60;1.00;;;;;;4980119;28;20482;-67
2023/03/04 08:56:16;;;;;;;9.03;2.63;;;7.70;1.00;;;;;;4979389;28;20859;-67
2023/03/04 08:58:43;;;;;;;15.40;2.93;;;7.60;1.00;;;;;;4978518;28;20573;-67
2023/03/04 09:01:12;;;;;;;10.13;2.70;;;7.50;1.00;;;;;;4995855;28;20581;-68
2023/03/04 09:03:40;;;;;;;10.07;3.00;;;7.40;1.00;;;;;;4977531;28;20725;-67
2023/03/04 09:06:08;;;;;;;7.47;2.63;;;7.20;1.00;;;;;;4982143;28;20214;-62
2023/03/04 09:08:36;;;;;;;8.60;3.67;;;7.20;1.00;;;;;;4979799;28;20236;-60
2023/03/04 09:11:03;;;;;;;9.77;3.10;;;7.00;1.00;;;;;;4980725;28;20197;-58
2023/03/04 09:13:30;;;;;;;9.30;3.03;;;7.00;1.00;;;;;;4979927;28;20186;-58
2023/03/04 09:15:58;;;;;;;12.70;2.63;;;7.00;1.00;;;;;;4979083;28;20200;-60
2023/03/04 09:18:26;;;;;;;8.43;2.73;;;7.00;1.00;;;;;;4978398;28;20204;-62
2023/03/04 09:20:53;;;;;;;8.83;2.63;;;7.00;1.00;;;;;;4979440;28;20284;-62
2023/03/04 09:23:20;;;;;;;9.37;2.50;;;6.80;1.00;;;;;;4979587;28;20253;-61
2023/03/04 09:25:48;;;;;;;8.57;2.70;;;6.80;1.00;;;;;;4979139;28;20292;-62
2023/03/04 09:28:17;;;;;;;9.43;2.67;;;6.90;1.00;;;;;;4979064;28;20226;-62
2023/03/04 09:30:44;;;;;;;13.93;2.60;;;6.90;1.00;;;;;;4978473;28;20194;-60
2023/03/04 09:33:16;;;;;;;9.93;2.90;;;7.30;1.00;;;;;;4978563;28;20196;-62
2023/03/04 09:35:43;;;;;;;8.87;2.40;;;7.80;1.00;;;;;;4984214;28;20314;-69
2023/03/04 09:38:10;;;;;;;6.80;2.63;;;7.80;1.00;;;;;;4979578;28;20590;-71
2023/03/04 09:40:44;;;;;;;8.77;2.97;;;7.90;1.00;;;;;;4980182;28;20568;-69
2023/03/04 09:43:19;;;;;;;8.93;2.33;;;7.60;1.00;;;;;;4969313;28;20256;-68
2023/03/04 09:45:50;;;;;;;9.00;2.40;;;7.40;1.00;;;;;;4979111;28;20225;-69
2023/03/04 09:48:23;;;;;;;7.13;2.67;;;7.50;1.00;;;;;;4979662;28;20209;-70
2023/03/04 09:51:04;;;;;;;5.10;2.03;;;8.80;1.00;;;;;;4980038;28;20580;-69
2023/03/04 09:53:39;;;;;;;7.43;2.70;;;8.60;1.00;;;;;;4979572;28;20264;-69
2023/03/04 09:56:08;;;;;;;7.07;2.37;;;8.30;1.00;;;;;;4979256;28;20197;-69
2023/03/04 09:58:54;;;;;;;5.37;2.63;;;8.20;1.00;;;;;;4978501;28;20232;-66
2023/03/04 10:01:35;;;;;;;9.13;2.67;;;8.20;1.00;;;;;;4978415;28;20218;-71
2023/03/04 10:04:16;;;;;;;6.33;2.37;;;8.00;1.00;;;;;;4978010;28;20280;-69
2023/03/04 10:06:45;;;;;;;6.10;2.30;;;7.70;1.00;;;;;;4978847;28;20193;-67
2023/03/04 10:09:27;;;;;;;9.30;2.50;;;7.40;1.00;;;;;;4976652;28;20573;-63
2023/03/04 10:12:13;;;;;;;7.37;2.50;;;7.40;1.00;;;;;;4978377;28;20604;-62
2023/03/04 10:15:00;;;;;;;6.80;2.40;;;7.40;1.00;;;;;;4983153;28;20244;-63
2023/03/04 10:17:37;;;;;;;6.70;2.83;;;7.50;1.00;;;;;;4978376;28;20190;-62
2023/03/04 10:20:25;;;;;;;12.43;4.53;;;7.50;1.00;;;;;;4977892;28;20296;-62
2023/03/04 10:23:07;;;;;;;5.93;2.97;;;7.40;1.00;;;;;;4977179;28;20461;-61
2023/03/04 10:25:40;;;;;;;7.00;2.20;;;7.20;1.00;;;;;;4980775;28;20291;-63
2023/03/04 10:28:18;;;;;;;8.40;2.60;;;7.20;1.00;;;;;;4964491;28;20610;-62
2023/03/04 10:31:09;;;;;;;7.57;2.43;;;7.10;1.00;;;;;;4976942;28;20723;-62
2023/03/04 10:33:38;;;;;;;8.20;2.90;;;7.10;1.00;;;;;;4979253;28;20256;-64
2023/03/04 10:36:29;;;;;;;6.50;2.47;;;7.00;1.00;;;;;;4994177;28;20209;-62
2023/03/04 10:39:09;;;;;;;10.17;2.97;;;7.00;1.00;;;;;;4981797;28;20202;-61
2023/03/04 10:41:41;;;;;;;7.93;2.80;;;6.80;1.00;;;;;;4980854;28;20211;-58
2023/03/04 10:44:07;;;;;;;5.50;2.33;;;6.80;1.00;;;;;;4979420;28;20296;-60
2023/03/04 10:46:39;;;;;;;7.87;2.77;;;6.80;1.00;;;;;;4978927;28;20194;-60
2023/03/04 10:49:08;;;;;;;7.87;3.07;;;7.00;1.00;;;;;;4980749;28;20317;-61
2023/03/04 10:52:02;;;;;;;9.53;2.80;;;7.00;1.00;;;;;;4982039;28;20195;-62
2023/03/04 10:54:46;;;;;;;10.03;3.00;;;7.00;1.00;;;;;;4982173;28;20289;-61
2023/03/04 10:57:19;;;;;;;7.63;3.57;;;7.00;1.00;;;;;;4979799;28;20190;-63
2023/03/04 10:59:58;;;;;;;9.80;2.70;;;7.00;1.00;;;;;;4979681;28;20214;-62
2023/03/04 11:02:33;;;;;;;3.93;2.47;;;7.10;1.00;;;;;;4963113;28;20572;-63
2023/03/04 11:05:22;;;;;;;5.23;2.50;;;7.10;1.00;;;;;;4980665;28;20340;-62
2023/03/04 11:07:58;;;;;;;6.43;2.33;;;8.40;1.00;;;;;;4995651;28;20202;-63
2023/03/04 11:10:39;;;;;;;6.27;3.00;;;9.20;1.00;;;;;;4982288;28;20197;-63
2023/03/04 11:13:17;;;;;;;6.37;2.17;;;9.30;1.00;;;;;;4981585;28;20208;-61
2023/03/04 11:16:20;;;;;;;4.93;2.20;;;9.30;1.00;;;;;;4979845;28;20209;-63
2023/03/04 11:18:53;;;;;;;2.40;1.80;;;9.00;1.00;;;;;;4980788;28;20205;-62
2023/03/04 11:21:29;;;;;;;4.83;2.10;;;8.80;1.00;;;;;;4979574;28;20609;-62
2023/03/04 11:24:00;;;;;;;10.33;2.70;;;8.60;1.00;;;;;;4981087;28;20659;-62
2023/03/04 11:26:46;;;;;;;6.17;2.67;;;8.50;1.00;;;;;;4982251;28;20245;-62
2023/03/04 11:29:22;;;;;;;4.57;2.37;;;8.50;1.00;;;;;;4981399;28;20617;-63
2023/03/04 11:31:56;;;;;;;8.67;3.23;;;8.40;1.00;;;;;;4989306;28;20284;-61
2023/03/04 11:34:39;;;;;;;5.33;2.50;;;8.40;1.00;;;;;;4980519;28;20416;-64
2023/03/04 11:37:38;;;;;;;6.43;2.70;;;8.60;1.00;;;;;;4986668;28;20256;-62
2023/03/04 11:40:15;;;;;;;5.63;2.10;;;8.60;1.00;;;;;;4980852;28;20198;-63
2023/03/04 11:42:52;;;;;;;6.20;2.50;;;8.20;1.00;;;;;;4987982;28;20284;-62
2023/03/04 11:45:58;;;;;;;3.83;2.30;;;8.10;1.00;;;;;;4982528;28;20213;-63
2023/03/04 11:48:48;;;;;;;4.63;2.20;;;8.10;1.00;;;;;;4980440;28;20580;-62
2023/03/04 11:51:22;;;;;;;4.93;2.93;;;8.00;1.00;;;;;;4984364;28;20681;-63
2023/03/04 11:54:18;;;;;;;4.17;2.80;;;8.00;1.00;;;;;;4971389;28;20625;-62
2023/03/04 11:56:52;;;;;;;8.27;2.77;;;7.70;1.00;;;;;;4981075;28;20206;-63
2023/03/04 11:59:40;;;;;;;9.30;3.07;;;7.80;1.00;;;;;;4980933;28;20202;-63
2023/03/04 12:02:10;;;;;;;7.77;2.33;;;7.70;1.00;;;;;;4979711;28;20193;-62
2023/03/04 12:05:18;;;;;;;6.00;2.17;;;7.60;1.00;;;;;;4986404;28;20265;-62
2023/03/04 12:08:00;;;;;;;4.27;2.33;;;7.70;1.00;;;;;;4958308;28;20310;-61
2023/03/04 12:10:40;;;;;;;4.97;2.20;;;7.80;1.00;;;;;;4979025;28;20217;-64
2023/03/04 12:13:34;;;;;;;4.03;1.90;;;7.90;1.00;;;;;;4980639;28;20817;-63
2023/03/04 12:16:38;;;;;;;3.43;2.03;;;8.00;1.00;;;;;;4986600;28;20300;-62
2023/03/04 12:19:11;;;;;;;3.30;2.07;;;7.90;1.00;;;;;;4987004;28;20312;-61
2023/03/04 12:21:52;;;;;;;3.50;1.90;;;7.60;1.00;;;;;;4986719;28;20724;-62
2023/03/04 12:24:28;;;;;;;4.07;2.50;;;7.40;1.00;;;;;;4976541;28;20552;-63
2023/03/04 12:27:27;;;;;;;3.20;2.13;;;7.30;1.00;;;;;;4978658;28;20586;-62
2023/03/04 12:30:15;;;;;;;7.00;2.87;;;7.10;1.00;;;;;;4951314;28;20207;-63
2023/03/04 12:32:45;;;;;;;3.90;2.97;;;7.00;1.00;;;;;;4978964;28;20198;-60
2023/03/04 12:35:28;;;;;;;6.60;2.67;;;6.90;1.00;;;;;;4941676;28;20212;-63
2023/03/04 12:38:21;;;;;;;5.73;2.37;;;6.90;1.00;;;;;;4981056;28;20203;-68
2023/03/04 12:41:21;;;;;;;8.50;3.07;;;6.90;1.00;;;;;;4979348;28;20194;-69
2023/03/04 12:43:48;;;;;;;7.33;3.00;;;6.90;1.00;;;;;;4980604;28;20284;-69
2023/03/04 12:46:40;;;;;;;8.03;2.80;;;6.80;1.00;;;;;;4997325;28;20221;-67
2023/03/04 12:49:33;;;;;;;4.97;2.47;;;6.80;1.00;;;;;;4977680;28;20229;-70
2023/03/04 12:52:40;;;;;;;6.07;2.67;;;6.90;18.30;;;;;;4978138;28;20198;-67
2023/03/04 12:55:11;;;;;;;4.70;3.10;;;6.90;26.70;;;;;;4956705;28;20252;-70
2023/03/04 12:57:39;;;;;;;6.70;2.97;;;6.90;53.00;;;;;;4979110;28;20217;-64
2023/03/04 13:00:06;;;;;;;7.00;2.50;;;6.90;71.10;;;;;;4964302;28;20219;-69
2023/03/04 13:02:42;;;;;;;4.50;2.90;;;6.80;53.60;;;;;;4978413;28;20218;-68
2023/03/04 13:05:37;;;;;;;5.33;2.40;;;6.80;44.50;;;;;;4978455;28;20244;-70
2023/03/04 13:08:23;;;;;;;8.53;2.60;;;6.80;15.10;;;;;;4979719;28;20194;-69
2023/03/04 13:10:51;;;;;;;5.40;2.33;;;6.80;1.00;;;;;;4984237;28;20618;-68
2023/03/04 13:13:41;;;;;;;4.27;2.43;;;6.90;1.00;;;;;;4975641;28;20289;-69
2023/03/04 13:16:16;;;;;;;4.97;2.20;;;6.90;1.00;;;;;;4978587;28;20735;-71
2023/03/04 13:18:44;;;;;;;6.47;2.23;;;6.90;1.00;;;;;;4993304;28;20205;-70
2023/03/04 13:21:10;;;;;;;5.37;2.63;;;6.90;1.00;;;;;;4977356;28;20201;-69